Nearby METAR Reports

 

KBMG - Bloomington, Indiana, USA
Distance from station: SSE 11mi, 18km
Updated: Tue, 10-Dec-2019 8:53pm EST
Clear
Clear
 Wind from W
Wind: W 3 mph , 6 km/h
Temperature: 23°F , -5°C
Dew Point: 12°F , -11°C
Humidity: 63%
Barometer: 30.35 inHg , 1027.8 hPa
Clouds: Clear
Visibility: 10 miles , 16 km
2019/12/11 01:53 KBMG 110153Z 26003KT 10SM CLR M05/M11 A3035 RMK AO2 SLP290 T10501106
KGPC - Greencastle, Indiana, USA
Distance from station: NNW 24mi, 39km
Updated: Tue, 10-Dec-2019 9:55pm EST
Clear
Clear
 Wind from calm
Wind: Calm
Temperature: 21°F , -6°C
Dew Point: 14°F , -10°C
Humidity: 74%
Barometer: 30.36 inHg , 1028.1 hPa
Clouds: Clear
Visibility: 10 miles , 16 km
2019/12/11 02:55 KGPC 110255Z AUTO 00000KT 10SM CLR M06/M10 A3036 RMK AO2
 
KHUF - Terre Haute, Indiana, USA
Distance from station: WNW 34mi, 54km
Updated: Tue, 10-Dec-2019 9:53pm EST
Overcast
Overcast
 Wind from WSW
Wind: WSW 5 mph , 7 km/h
Temperature: 25°F , -4°C
Wind Chill: 19°F , -7°C
Dew Point: 18°F , -8°C
Humidity: 74%
Barometer: 30.38 inHg , 1028.8 hPa
Clouds: Overcast
Visibility: 10 miles , 16 km
Cloud details: Overcast 3800 ft
2019/12/11 02:53 KHUF 110253Z 24004KT 10SM OVC038 M04/M08 A3038 RMK AO2 SLP295 T10391078 51009
KIND - Indianapolis, Indiana, USA
Distance from station: NE 36mi, 58km
Updated: Tue, 10-Dec-2019 9:54pm EST
Partly cloudy
Partly cloudy
 Wind from W
Wind: W 7 mph , 11 km/h
Temperature: 19°F , -7°C
Wind Chill: 10°F , -12°C
Dew Point: 12°F , -11°C
Humidity: 73%
Barometer: 30.35 inHg , 1027.8 hPa
Clouds: Partly cloudy
Visibility: 10 miles , 16 km
Cloud details: Few Clouds 20000 ft
Partly cloudy 25000 ft
2019/12/11 02:54 KIND 110254Z 26006KT 10SM FEW200 SCT250 M07/M11 A3035 RMK AO2 SLP289 T10721106 51015
 
KHFY - Indianapolis, Indiana, USA
Distance from station: NE 40mi, 65km
Updated: Tue, 10-Dec-2019 4:35pm EST
NOT Current
Clear
Clear
 Wind from W
Wind: W 10 mph , 17 km/h
Temperature: 25°F , -4°C
Wind Chill: 15°F , -9°C
Dew Point: 10°F , -12°C
Humidity: 54%
Barometer: 30.27 inHg , 1025.1 hPa
Clouds: Clear
Visibility: 10 miles , 16 km
2019/12/10 21:35 KHFY 102135Z AUTO 26009KT 10SM CLR M04/M12 A3027 RMK AO2 T10411122
KBAK - Columbus/Balkala, Indiana, USA
Distance from station: E 43mi, 69km
Updated: Tue, 10-Dec-2019 9:45pm EST
Clear
Clear
 Wind from calm
Wind: Calm
Temperature: 21°F , -6°C
Dew Point: 12°F , -11°C
Humidity: 68%
Barometer: 30.38 inHg , 1028.8 hPa
Clouds: Clear
Visibility: 10 miles , 16 km
2019/12/11 02:45 KBAK 110245Z 00000KT 10SM SKC M06/M11 A3038 RMK LAST
 
KEYE - Indianapolis, Indiana, USA
Distance from station: NNE 43mi, 69km
Updated: Tue, 10-Dec-2019 9:53pm EST
Clear
Clear
 Wind from WSW
Wind: WSW 3 mph , 6 km/h
Temperature: 21°F , -6°C
Dew Point: 12°F , -11°C
Humidity: 68%
Barometer: 30.33 inHg , 1027.1 hPa
Clouds: Clear
Visibility: 10 miles , 16 km
2019/12/11 02:53 KEYE 110253Z AUTO 25003KT 10SM CLR M06/M11 A3033 RMK AO2 SLP285 T10611106 50010
KDCY - Daviess County, Indiana, USA
Distance from station: SSW 47mi, 76km
Updated: Tue, 10-Dec-2019 9:35pm EST
Clear
Clear
 Wind from WSW
Wind: WSW 5 mph , 7 km/h
Temperature: 25°F , -4°C
Wind Chill: 19°F , -7°C
Dew Point: 18°F , -8°C
Humidity: 74%
Barometer: 30.40 inHg , 1029.5 hPa
Clouds: Clear
Visibility: 10 miles , 16 km
2019/12/11 02:35 KDCY 110235Z AUTO 24004KT 10SM CLR M04/M08 A3040 RMK AO2 T10411077
 
KCFJ - Crawfordsville, Indiana, USA
Distance from station: NNW 49mi, 78km
Updated: Tue, 10-Dec-2019 9:55pm EST
Clear
Clear
 Wind from SW
Wind: SW 6 mph , 9 km/h
Temperature: 18°F , -8°C
Wind Chill: 10°F , -12°C
Dew Point: 12°F , -11°C
Humidity: 79%
Barometer: 30.34 inHg , 1027.4 hPa
Clouds: Clear
Visibility: 10 miles , 16 km
2019/12/11 02:55 KCFJ 110255Z AUTO 23005KT 10SM CLR M08/M11 A3034 RMK AO2 T10851112